sensor_id;sensor_type;location;lat;lon;timestamp;temperature;humidity
23717;DHT22;22094;52.130;5.598;2023-04-23T00:00:33;7.30;99.90
23717;DHT22;22094;52.130;5.598;2023-04-23T00:03:04;7.30;99.90
23717;DHT22;22094;52.130;5.598;2023-04-23T00:05:33;7.20;99.90
23717;DHT22;22094;52.130;5.598;2023-04-23T00:08:01;7.40;99.90
23717;DHT22;22094;52.130;5.598;2023-04-23T00:10:27;7.20;99.90
23717;DHT22;22094;52.130;5.598;2023-04-23T00:12:53;7.20;99.90
23717;DHT22;22094;52.130;5.598;2023-04-23T00:15:19;7.10;99.90
23717;DHT22;22094;52.130;5.598;2023-04-23T00:17:47;7.10;99.90
23717;DHT22;22094;52.130;5.598;2023-04-23T00:20:14;7.00;99.90
23717;DHT22;22094;52.130;5.598;2023-04-23T00:22:41;7.10;99.90
23717;DHT22;22094;52.130;5.598;2023-04-23T00:25:07;7.10;99.90
23717;DHT22;22094;52.130;5.598;2023-04-23T00:27:33;7.10;99.90
23717;DHT22;22094;52.130;5.598;2023-04-23T00:29:59;7.10;99.90
23717;DHT22;22094;52.130;5.598;2023-04-23T00:32:24;7.40;99.90
23717;DHT22;22094;52.130;5.598;2023-04-23T00:34:50;7.10;99.90
23717;DHT22;22094;52.130;5.598;2023-04-23T00:37:16;7.10;99.90
23717;DHT22;22094;52.130;5.598;2023-04-23T00:39:41;7.00;99.90
23717;DHT22;22094;52.130;5.598;2023-04-23T00:42:07;7.00;99.90
23717;DHT22;22094;52.130;5.598;2023-04-23T00:44:37;7.10;99.90
23717;DHT22;22094;52.130;5.598;2023-04-23T00:47:03;7.00;99.90
23717;DHT22;22094;52.130;5.598;2023-04-23T00:49:30;7.00;99.90
23717;DHT22;22094;52.130;5.598;2023-04-23T00:51:55;7.00;99.90
23717;DHT22;22094;52.130;5.598;2023-04-23T00:54:22;6.90;99.90
23717;DHT22;22094;52.130;5.598;2023-04-23T00:56:48;6.90;99.90
23717;DHT22;22094;52.130;5.598;2023-04-23T00:59:14;6.90;99.90
23717;DHT22;22094;52.130;5.598;2023-04-23T01:01:40;7.00;99.90
23717;DHT22;22094;52.130;5.598;2023-04-23T01:04:07;6.90;99.90
23717;DHT22;22094;52.130;5.598;2023-04-23T01:06:34;6.90;99.90
23717;DHT22;22094;52.130;5.598;2023-04-23T01:09:00;6.80;99.90
23717;DHT22;22094;52.130;5.598;2023-04-23T01:11:25;6.80;99.90
23717;DHT22;22094;52.130;5.598;2023-04-23T01:13:51;6.80;99.90
23717;DHT22;22094;52.130;5.598;2023-04-23T01:16:17;6.80;99.90
23717;DHT22;22094;52.130;5.598;2023-04-23T01:18:43;6.80;99.90
23717;DHT22;22094;52.130;5.598;2023-04-23T01:21:09;6.90;99.90
23717;DHT22;22094;52.130;5.598;2023-04-23T01:23:36;6.90;99.90
23717;DHT22;22094;52.130;5.598;2023-04-23T01:26:02;7.00;99.90
23717;DHT22;22094;52.130;5.598;2023-04-23T01:28:28;7.00;99.90
23717;DHT22;22094;52.130;5.598;2023-04-23T01:30:55;7.00;99.90
23717;DHT22;22094;52.130;5.598;2023-04-23T01:33:21;7.00;99.90
23717;DHT22;22094;52.130;5.598;2023-04-23T01:35:47;7.00;99.90
23717;DHT22;22094;52.130;5.598;2023-04-23T01:38:13;6.90;99.90
23717;DHT22;22094;52.130;5.598;2023-04-23T01:40:40;6.80;99.90
23717;DHT22;22094;52.130;5.598;2023-04-23T01:43:07;6.70;99.90
23717;DHT22;22094;52.130;5.598;2023-04-23T01:45:33;6.70;99.90
23717;DHT22;22094;52.130;5.598;2023-04-23T01:47:59;6.60;99.90
23717;DHT22;22094;52.130;5.598;2023-04-23T01:50:25;6.60;99.90
23717;DHT22;22094;52.130;5.598;2023-04-23T01:52:52;6.50;99.90
23717;DHT22;22094;52.130;5.598;2023-04-23T01:55:17;6.50;99.90
23717;DHT22;22094;52.130;5.598;2023-04-23T01:57:46;6.40;99.90
23717;DHT22;22094;52.130;5.598;2023-04-23T02:00:13;6.40;99.90
23717;DHT22;22094;52.130;5.598;2023-04-23T02:02:40;6.40;99.90
23717;DHT22;22094;52.130;5.598;2023-04-23T02:05:11;6.40;99.90
23717;DHT22;22094;52.130;5.598;2023-04-23T02:07:38;6.60;99.90
23717;DHT22;22094;52.130;5.598;2023-04-23T02:10:04;6.50;99.90
23717;DHT22;22094;52.130;5.598;2023-04-23T02:12:30;6.50;99.90
23717;DHT22;22094;52.130;5.598;2023-04-23T02:14:55;6.60;99.90
23717;DHT22;22094;52.130;5.598;2023-04-23T02:17:21;6.60;99.90
23717;DHT22;22094;52.130;5.598;2023-04-23T02:19:48;6.70;99.90
23717;DHT22;22094;52.130;5.598;2023-04-23T02:22:13;6.70;99.90
23717;DHT22;22094;52.130;5.598;2023-04-23T02:24:39;6.80;99.90
23717;DHT22;22094;52.130;5.598;2023-04-23T02:27:06;6.80;99.90
23717;DHT22;22094;52.130;5.598;2023-04-23T02:29:32;6.60;99.90
23717;DHT22;22094;52.130;5.598;2023-04-23T02:31:58;6.90;99.90
23717;DHT22;22094;52.130;5.598;2023-04-23T02:34:23;7.00;99.90
23717;DHT22;22094;52.130;5.598;2023-04-23T02:36:49;7.10;99.90
23717;DHT22;22094;52.130;5.598;2023-04-23T02:39:15;7.10;99.90
23717;DHT22;22094;52.130;5.598;2023-04-23T02:41:41;7.10;99.90
23717;DHT22;22094;52.130;5.598;2023-04-23T02:44:06;7.10;99.90
23717;DHT22;22094;52.130;5.598;2023-04-23T02:46:32;7.10;99.90
23717;DHT22;22094;52.130;5.598;2023-04-23T02:48:57;7.10;99.90
23717;DHT22;22094;52.130;5.598;2023-04-23T02:51:23;7.20;99.90
23717;DHT22;22094;52.130;5.598;2023-04-23T02:53:49;7.20;99.90
23717;DHT22;22094;52.130;5.598;2023-04-23T02:56:14;7.20;99.90
23717;DHT22;22094;52.130;5.598;2023-04-23T02:58:40;7.30;99.90
23717;DHT22;22094;52.130;5.598;2023-04-23T03:01:06;7.30;99.90
23717;DHT22;22094;52.130;5.598;2023-04-23T03:03:32;7.30;99.90
23717;DHT22;22094;52.130;5.598;2023-04-23T03:05:59;7.30;99.90
23717;DHT22;22094;52.130;5.598;2023-04-23T03:08:25;7.30;99.90
23717;DHT22;22094;52.130;5.598;2023-04-23T03:10:50;7.50;99.90
23717;DHT22;22094;52.130;5.598;2023-04-23T03:13:16;7.50;99.90
23717;DHT22;22094;52.130;5.598;2023-04-23T03:15:41;7.60;99.90
23717;DHT22;22094;52.130;5.598;2023-04-23T03:18:07;7.70;99.90
23717;DHT22;22094;52.130;5.598;2023-04-23T03:20:36;7.80;99.90
23717;DHT22;22094;52.130;5.598;2023-04-23T03:23:02;7.90;99.90
23717;DHT22;22094;52.130;5.598;2023-04-23T03:25:31;8.00;99.90
23717;DHT22;22094;52.130;5.598;2023-04-23T03:27:57;8.00;99.90
23717;DHT22;22094;52.130;5.598;2023-04-23T03:30:22;8.00;99.90
23717;DHT22;22094;52.130;5.598;2023-04-23T03:32:49;8.00;99.90
23717;DHT22;22094;52.130;5.598;2023-04-23T03:35:14;8.00;99.90
23717;DHT22;22094;52.130;5.598;2023-04-23T03:37:41;8.00;99.90
23717;DHT22;22094;52.130;5.598;2023-04-23T03:40:07;8.10;99.90
23717;DHT22;22094;52.130;5.598;2023-04-23T03:42:33;8.00;99.90
23717;DHT22;22094;52.130;5.598;2023-04-23T03:44:59;8.00;99.90
23717;DHT22;22094;52.130;5.598;2023-04-23T03:47:25;8.40;99.90
23717;DHT22;22094;52.130;5.598;2023-04-23T03:49:51;8.00;99.90
23717;DHT22;22094;52.130;5.598;2023-04-23T03:52:17;7.90;99.90
23717;DHT22;22094;52.130;5.598;2023-04-23T03:54:42;7.90;99.90
23717;DHT22;22094;52.130;5.598;2023-04-23T03:57:08;7.90;99.90
23717;DHT22;22094;52.130;5.598;2023-04-23T03:59:34;7.90;99.90
23717;DHT22;22094;52.130;5.598;2023-04-23T04:02:00;8.00;99.90
23717;DHT22;22094;52.130;5.598;2023-04-23T04:04:28;8.00;99.90
23717;DHT22;22094;52.130;5.598;2023-04-23T04:06:54;8.10;99.90
23717;DHT22;22094;52.130;5.598;2023-04-23T04:09:20;7.90;99.90
23717;DHT22;22094;52.130;5.598;2023-04-23T04:11:46;7.90;99.90
23717;DHT22;22094;52.130;5.598;2023-04-23T04:14:12;8.00;99.90
23717;DHT22;22094;52.130;5.598;2023-04-23T04:16:38;7.90;99.90
23717;DHT22;22094;52.130;5.598;2023-04-23T04:19:03;7.80;99.90
23717;DHT22;22094;52.130;5.598;2023-04-23T04:21:29;7.80;99.90
23717;DHT22;22094;52.130;5.598;2023-04-23T04:23:55;7.80;99.90
23717;DHT22;22094;52.130;5.598;2023-04-23T04:26:20;7.70;99.90
23717;DHT22;22094;52.130;5.598;2023-04-23T04:28:46;7.70;99.90
23717;DHT22;22094;52.130;5.598;2023-04-23T04:31:12;7.60;99.90
23717;DHT22;22094;52.130;5.598;2023-04-23T04:33:40;7.60;99.90
23717;DHT22;22094;52.130;5.598;2023-04-23T04:36:06;7.70;99.90
23717;DHT22;22094;52.130;5.598;2023-04-23T04:38:33;7.60;99.90
23717;DHT22;22094;52.130;5.598;2023-04-23T04:41:02;7.60;99.90
23717;DHT22;22094;52.130;5.598;2023-04-23T04:43:27;7.60;99.90
23717;DHT22;22094;52.130;5.598;2023-04-23T04:45:53;7.60;99.90
23717;DHT22;22094;52.130;5.598;2023-04-23T04:48:19;7.70;99.90
23717;DHT22;22094;52.130;5.598;2023-04-23T04:50:45;7.70;99.90
23717;DHT22;22094;52.130;5.598;2023-04-23T04:53:11;7.70;99.90
23717;DHT22;22094;52.130;5.598;2023-04-23T04:55:37;7.80;99.90
23717;DHT22;22094;52.130;5.598;2023-04-23T04:58:02;7.80;99.90
23717;DHT22;22094;52.130;5.598;2023-04-23T05:00:28;7.90;99.90
23717;DHT22;22094;52.130;5.598;2023-04-23T05:02:57;7.90;99.90
23717;DHT22;22094;52.130;5.598;2023-04-23T05:05:24;8.10;99.90
23717;DHT22;22094;52.130;5.598;2023-04-23T05:07:51;8.10;99.90
23717;DHT22;22094;52.130;5.598;2023-04-23T05:12:45;6.50;99.90
23717;DHT22;22094;52.130;5.598;2023-04-23T05:15:12;8.30;99.90
23717;DHT22;22094;52.130;5.598;2023-04-23T05:17:41;8.30;99.90
23717;DHT22;22094;52.130;5.598;2023-04-23T05:20:08;8.40;99.90
23717;DHT22;22094;52.130;5.598;2023-04-23T05:22:36;8.50;99.90
23717;DHT22;22094;52.130;5.598;2023-04-23T05:25:03;8.40;99.90
23717;DHT22;22094;52.130;5.598;2023-04-23T05:27:29;8.50;99.90
23717;DHT22;22094;52.130;5.598;2023-04-23T05:29:54;10.60;99.90
23717;DHT22;22094;52.130;5.598;2023-04-23T05:32:20;8.30;99.90
23717;DHT22;22094;52.130;5.598;2023-04-23T05:34:45;8.50;99.90
23717;DHT22;22094;52.130;5.598;2023-04-23T05:37:11;8.30;99.90
23717;DHT22;22094;52.130;5.598;2023-04-23T05:39:36;8.50;99.90
23717;DHT22;22094;52.130;5.598;2023-04-23T05:42:02;9.50;99.90
23717;DHT22;22094;52.130;5.598;2023-04-23T05:44:28;8.80;99.90
23717;DHT22;22094;52.130;5.598;2023-04-23T05:46:54;9.20;99.90
23717;DHT22;22094;52.130;5.598;2023-04-23T05:49:20;9.10;99.90
23717;DHT22;22094;52.130;5.598;2023-04-23T05:51:45;9.20;99.90
23717;DHT22;22094;52.130;5.598;2023-04-23T05:54:11;9.50;99.90
23717;DHT22;22094;52.130;5.598;2023-04-23T05:56:36;8.00;99.90
23717;DHT22;22094;52.130;5.598;2023-04-23T05:59:02;9.30;99.90
23717;DHT22;22094;52.130;5.598;2023-04-23T06:01:27;9.60;99.90
23717;DHT22;22094;52.130;5.598;2023-04-23T06:03:53;9.80;99.90
23717;DHT22;22094;52.130;5.598;2023-04-23T06:06:19;9.70;99.90
23717;DHT22;22094;52.130;5.598;2023-04-23T06:08:44;11.50;99.90
23717;DHT22;22094;52.130;5.598;2023-04-23T06:11:10;12.40;99.90
23717;DHT22;22094;52.130;5.598;2023-04-23T06:13:35;10.10;99.90
23717;DHT22;22094;52.130;5.598;2023-04-23T06:16:06;10.20;99.90
23717;DHT22;22094;52.130;5.598;2023-04-23T06:18:33;10.20;99.90
23717;DHT22;22094;52.130;5.598;2023-04-23T06:20:58;10.50;99.90
23717;DHT22;22094;52.130;5.598;2023-04-23T06:25:54;10.80;99.90
23717;DHT22;22094;52.130;5.598;2023-04-23T06:28:20;10.20;99.90
23717;DHT22;22094;52.130;5.598;2023-04-23T06:30:46;10.60;99.90
23717;DHT22;22094;52.130;5.598;2023-04-23T06:33:11;11.00;99.90
23717;DHT22;22094;52.130;5.598;2023-04-23T06:35:37;13.00;99.90
23717;DHT22;22094;52.130;5.598;2023-04-23T06:38:03;13.60;99.90
23717;DHT22;22094;52.130;5.598;2023-04-23T06:42:54;11.30;99.90
23717;DHT22;22094;52.130;5.598;2023-04-23T06:45:20;14.00;99.90
23717;DHT22;22094;52.130;5.598;2023-04-23T06:47:46;11.40;99.90
23717;DHT22;22094;52.130;5.598;2023-04-23T06:50:13;11.50;99.90
23717;DHT22;22094;52.130;5.598;2023-04-23T06:52:39;11.70;99.90
23717;DHT22;22094;52.130;5.598;2023-04-23T06:55:06;11.50;99.90
23717;DHT22;22094;52.130;5.598;2023-04-23T06:57:31;11.60;99.90
23717;DHT22;22094;52.130;5.598;2023-04-23T06:59:57;11.20;99.90
23717;DHT22;22094;52.130;5.598;2023-04-23T07:02:22;11.40;99.90
23717;DHT22;22094;52.130;5.598;2023-04-23T07:04:48;12.00;99.90
23717;DHT22;22094;52.130;5.598;2023-04-23T07:07:13;12.00;99.90
23717;DHT22;22094;52.130;5.598;2023-04-23T07:09:39;13.10;99.90
23717;DHT22;22094;52.130;5.598;2023-04-23T07:12:05;12.70;99.90
23717;DHT22;22094;52.130;5.598;2023-04-23T07:14:31;12.80;99.90
23717;DHT22;22094;52.130;5.598;2023-04-23T07:16:57;12.10;99.90
23717;DHT22;22094;52.130;5.598;2023-04-23T07:19:23;13.00;99.90
23717;DHT22;22094;52.130;5.598;2023-04-23T07:21:49;13.70;99.90
23717;DHT22;22094;52.130;5.598;2023-04-23T07:26:41;13.50;99.90
23717;DHT22;22094;52.130;5.598;2023-04-23T07:29:06;12.90;99.90
23717;DHT22;22094;52.130;5.598;2023-04-23T07:31:35;12.20;99.90
23717;DHT22;22094;52.130;5.598;2023-04-23T07:34:01;13.50;99.90
23717;DHT22;22094;52.130;5.598;2023-04-23T07:38:53;15.20;99.90
23717;DHT22;22094;52.130;5.598;2023-04-23T07:43:45;13.50;99.90
23717;DHT22;22094;52.130;5.598;2023-04-23T07:46:10;14.50;99.90
23717;DHT22;22094;52.130;5.598;2023-04-23T07:48:36;15.20;99.90
23717;DHT22;22094;52.130;5.598;2023-04-23T07:51:02;16.00;99.90
23717;DHT22;22094;52.130;5.598;2023-04-23T07:53:27;13.60;99.90
23717;DHT22;22094;52.130;5.598;2023-04-23T07:55:54;14.60;99.90
23717;DHT22;22094;52.130;5.598;2023-04-23T08:03:13;14.90;99.90
23717;DHT22;22094;52.130;5.598;2023-04-23T08:10:31;17.30;99.90
23717;DHT22;22094;52.130;5.598;2023-04-23T08:20:15;15.70;99.90
23717;DHT22;22094;52.130;5.598;2023-04-23T08:25:07;16.10;99.90
23717;DHT22;22094;52.130;5.598;2023-04-23T08:29:59;15.90;99.90
23717;DHT22;22094;52.130;5.598;2023-04-23T08:39:42;14.70;99.90
23717;DHT22;22094;52.130;5.598;2023-04-23T08:42:22;15.80;99.90
23717;DHT22;22094;52.130;5.598;2023-04-23T08:44:50;18.50;99.90
23717;DHT22;22094;52.130;5.598;2023-04-23T08:49:44;16.30;99.90
23717;DHT22;22094;52.130;5.598;2023-04-23T08:52:23;16.30;99.90
23717;DHT22;22094;52.130;5.598;2023-04-23T08:54:52;17.30;99.90
23717;DHT22;22094;52.130;5.598;2023-04-23T09:02:12;17.00;99.90
23717;DHT22;22094;52.130;5.598;2023-04-23T09:04:40;17.00;99.90
23717;DHT22;22094;52.130;5.598;2023-04-23T09:09:36;17.10;99.90
23717;DHT22;22094;52.130;5.598;2023-04-23T09:12:07;15.10;99.90
23717;DHT22;22094;52.130;5.598;2023-04-23T09:14:33;17.20;99.90
23717;DHT22;22094;52.130;5.598;2023-04-23T09:19:26;17.40;99.90
23717;DHT22;22094;52.130;5.598;2023-04-23T09:24:21;18.00;99.90
23717;DHT22;22094;52.130;5.598;2023-04-23T09:26:48;17.50;99.90
23717;DHT22;22094;52.130;5.598;2023-04-23T09:29:22;17.20;99.90
23717;DHT22;22094;52.130;5.598;2023-04-23T09:31:50;17.20;99.90
23717;DHT22;22094;52.130;5.598;2023-04-23T09:34:20;18.50;99.90
23717;DHT22;22094;52.130;5.598;2023-04-23T09:36:48;17.30;99.90
23717;DHT22;22094;52.130;5.598;2023-04-23T09:39:21;17.50;99.90
23717;DHT22;22094;52.130;5.598;2023-04-23T09:41:48;18.70;99.90
23717;DHT22;22094;52.130;5.598;2023-04-23T09:44:19;18.70;99.90
23717;DHT22;22094;52.130;5.598;2023-04-23T09:46:47;18.80;99.90
23717;DHT22;22094;52.130;5.598;2023-04-23T09:49:13;17.90;99.90
23717;DHT22;22094;52.130;5.598;2023-04-23T09:51:47;18.40;99.90
23717;DHT22;22094;52.130;5.598;2023-04-23T09:54:20;18.10;99.90
23717;DHT22;22094;52.130;5.598;2023-04-23T09:56:51;17.70;99.90
23717;DHT22;22094;52.130;5.598;2023-04-23T09:59:22;18.10;99.90
23717;DHT22;22094;52.130;5.598;2023-04-23T10:01:48;18.00;99.90
23717;DHT22;22094;52.130;5.598;2023-04-23T10:04:18;18.30;99.90
23717;DHT22;22094;52.130;5.598;2023-04-23T10:18:58;18.90;99.90
23717;DHT22;22094;52.130;5.598;2023-04-23T10:21:28;19.20;99.90
23717;DHT22;22094;52.130;5.598;2023-04-23T10:23:55;20.00;99.90
23717;DHT22;22094;52.130;5.598;2023-04-23T10:26:23;19.40;99.90
23717;DHT22;22094;52.130;5.598;2023-04-23T10:28:53;19.80;99.90
23717;DHT22;22094;52.130;5.598;2023-04-23T10:31:19;18.80;99.90
23717;DHT22;22094;52.130;5.598;2023-04-23T10:33:47;19.20;99.90
23717;DHT22;22094;52.130;5.598;2023-04-23T10:38:41;20.20;99.90
23717;DHT22;22094;52.130;5.598;2023-04-23T10:41:07;19.40;99.90
23717;DHT22;22094;52.130;5.598;2023-04-23T10:43:34;19.60;99.90
23717;DHT22;22094;52.130;5.598;2023-04-23T10:52:01;19.00;99.90
23717;DHT22;22094;52.130;5.598;2023-04-23T10:54:33;18.60;99.90
23717;DHT22;22094;52.130;5.598;2023-04-23T10:57:02;18.10;99.90
23717;DHT22;22094;52.130;5.598;2023-04-23T10:59:32;18.10;99.90
23717;DHT22;22094;52.130;5.598;2023-04-23T11:02:05;18.50;99.90
23717;DHT22;22094;52.130;5.598;2023-04-23T11:04:33;18.70;99.90
23717;DHT22;22094;52.130;5.598;2023-04-23T11:07:09;19.00;99.90
23717;DHT22;22094;52.130;5.598;2023-04-23T11:09:36;19.30;99.90
23717;DHT22;22094;52.130;5.598;2023-04-23T11:12:07;18.90;99.90
23717;DHT22;22094;52.130;5.598;2023-04-23T11:17:06;17.10;99.90
23717;DHT22;22094;52.130;5.598;2023-04-23T11:19:35;19.50;99.90
23717;DHT22;22094;52.130;5.598;2023-04-23T11:22:19;18.90;99.90
23717;DHT22;22094;52.130;5.598;2023-04-23T11:24:45;18.60;99.90
23717;DHT22;22094;52.130;5.598;2023-04-23T11:27:15;18.00;99.90
23717;DHT22;22094;52.130;5.598;2023-04-23T11:29:43;20.20;99.90
23717;DHT22;22094;52.130;5.598;2023-04-23T11:32:10;20.10;99.90
23717;DHT22;22094;52.130;5.598;2023-04-23T11:34:39;20.10;99.90
23717;DHT22;22094;52.130;5.598;2023-04-23T11:37:09;19.90;99.90
23717;DHT22;22094;52.130;5.598;2023-04-23T11:42:02;17.60;99.90
23717;DHT22;22094;52.130;5.598;2023-04-23T11:44:29;20.10;99.90
23717;DHT22;22094;52.130;5.598;2023-04-23T11:46:59;18.50;99.90
23717;DHT22;22094;52.130;5.598;2023-04-23T11:49:25;17.70;99.90
23717;DHT22;22094;52.130;5.598;2023-04-23T11:51:51;19.60;99.90
23717;DHT22;22094;52.130;5.598;2023-04-23T11:54:17;21.40;99.90
23717;DHT22;22094;52.130;5.598;2023-04-23T12:01:42;19.70;99.90
23717;DHT22;22094;52.130;5.598;2023-04-23T12:04:09;19.50;99.90
23717;DHT22;22094;52.130;5.598;2023-04-23T12:09:01;20.20;99.90
23717;DHT22;22094;52.130;5.598;2023-04-23T12:11:26;21.10;99.90
23717;DHT22;22094;52.130;5.598;2023-04-23T12:13:52;19.70;99.90
23717;DHT22;22094;52.130;5.598;2023-04-23T12:16:42;19.50;99.90
23717;DHT22;22094;52.130;5.598;2023-04-23T12:21:59;19.50;99.90
23717;DHT22;22094;52.130;5.598;2023-04-23T12:24:26;19.50;99.90
23717;DHT22;22094;52.130;5.598;2023-04-23T12:26:54;18.40;99.90
23717;DHT22;22094;52.130;5.598;2023-04-23T12:29:21;20.60;99.90
23717;DHT22;22094;52.130;5.598;2023-04-23T12:31:48;19.50;99.90
23717;DHT22;22094;52.130;5.598;2023-04-23T12:34:14;18.30;99.90
23717;DHT22;22094;52.130;5.598;2023-04-23T12:36:48;20.70;99.90
23717;DHT22;22094;52.130;5.598;2023-04-23T12:39:29;21.80;99.90
23717;DHT22;22094;52.130;5.598;2023-04-23T12:42:05;20.40;99.90
23717;DHT22;22094;52.130;5.598;2023-04-23T12:44:33;20.70;99.90
23717;DHT22;22094;52.130;5.598;2023-04-23T12:47:04;20.60;99.90
23717;DHT22;22094;52.130;5.598;2023-04-23T12:49:32;20.70;99.90
23717;DHT22;22094;52.130;5.598;2023-04-23T12:51:59;20.70;99.90
23717;DHT22;22094;52.130;5.598;2023-04-23T12:54:29;20.40;99.90
23717;DHT22;22094;52.130;5.598;2023-04-23T12:56:56;20.50;99.90
23717;DHT22;22094;52.130;5.598;2023-04-23T12:59:22;20.50;99.90
23717;DHT22;22094;52.130;5.598;2023-04-23T13:01:48;19.90;99.90
23717;DHT22;22094;52.130;5.598;2023-04-23T13:06:40;21.70;99.90
23717;DHT22;22094;52.130;5.598;2023-04-23T13:11:39;19.70;99.90
23717;DHT22;22094;52.130;5.598;2023-04-23T13:14:06;21.80;99.90
23717;DHT22;22094;52.130;5.598;2023-04-23T13:16:32;20.90;99.90
23717;DHT22;22094;52.130;5.598;2023-04-23T13:18:58;19.50;99.90
23717;DHT22;22094;52.130;5.598;2023-04-23T13:23:50;18.30;99.90
23717;DHT22;22094;52.130;5.598;2023-04-23T13:26:16;19.30;99.90
23717;DHT22;22094;52.130;5.598;2023-04-23T13:28:41;18.10;99.90
23717;DHT22;22094;52.130;5.598;2023-04-23T13:31:07;19.20;99.90
23717;DHT22;22094;52.130;5.598;2023-04-23T13:33:33;17.80;99.90
23717;DHT22;22094;52.130;5.598;2023-04-23T13:36:00;19.50;99.90
23717;DHT22;22094;52.130;5.598;2023-04-23T13:38:27;19.70;99.90
23717;DHT22;22094;52.130;5.598;2023-04-23T13:40:53;19.50;99.90
23717;DHT22;22094;52.130;5.598;2023-04-23T13:43:18;19.90;99.90
23717;DHT22;22094;52.130;5.598;2023-04-23T13:45:47;19.70;99.90
23717;DHT22;22094;52.130;5.598;2023-04-23T13:48:14;18.10;99.90
23717;DHT22;22094;52.130;5.598;2023-04-23T13:50:40;19.70;99.90
23717;DHT22;22094;52.130;5.598;2023-04-23T13:53:05;18.70;99.90
23717;DHT22;22094;52.130;5.598;2023-04-23T13:55:31;20.00;99.90
23717;DHT22;22094;52.130;5.598;2023-04-23T13:57:57;21.10;99.90
23717;DHT22;22094;52.130;5.598;2023-04-23T14:00:25;18.80;99.90
23717;DHT22;22094;52.130;5.598;2023-04-23T14:02:51;20.50;99.90
23717;DHT22;22094;52.130;5.598;2023-04-23T14:07:43;20.90;99.90
23717;DHT22;22094;52.130;5.598;2023-04-23T14:10:09;20.70;99.90
23717;DHT22;22094;52.130;5.598;2023-04-23T14:12:36;19.40;99.90
23717;DHT22;22094;52.130;5.598;2023-04-23T14:22:21;18.70;99.90
23717;DHT22;22094;52.130;5.598;2023-04-23T14:24:49;20.40;99.90
23717;DHT22;22094;52.130;5.598;2023-04-23T14:27:15;21.10;99.90
23717;DHT22;22094;52.130;5.598;2023-04-23T14:29:50;16.40;99.90
23717;DHT22;22094;52.130;5.598;2023-04-23T14:32:16;18.40;99.90
23717;DHT22;22094;52.130;5.598;2023-04-23T14:34:43;18.10;99.90
23717;DHT22;22094;52.130;5.598;2023-04-23T14:37:09;18.90;99.90
23717;DHT22;22094;52.130;5.598;2023-04-23T14:42:01;18.20;99.90
23717;DHT22;22094;52.130;5.598;2023-04-23T14:44:27;18.90;99.90
23717;DHT22;22094;52.130;5.598;2023-04-23T14:46:52;18.40;99.90
23717;DHT22;22094;52.130;5.598;2023-04-23T14:49:18;16.90;99.90
23717;DHT22;22094;52.130;5.598;2023-04-23T14:51:48;18.00;99.90
23717;DHT22;22094;52.130;5.598;2023-04-23T14:54:20;19.70;99.90
23717;DHT22;22094;52.130;5.598;2023-04-23T14:59:12;17.30;99.90
23717;DHT22;22094;52.130;5.598;2023-04-23T15:01:38;17.00;99.90
23717;DHT22;22094;52.130;5.598;2023-04-23T15:04:04;16.70;99.90
23717;DHT22;22094;52.130;5.598;2023-04-23T15:06:29;16.50;99.90
23717;DHT22;22094;52.130;5.598;2023-04-23T15:08:55;18.50;99.90
23717;DHT22;22094;52.130;5.598;2023-04-23T15:11:20;16.10;99.90
23717;DHT22;22094;52.130;5.598;2023-04-23T15:13:56;15.90;99.90
23717;DHT22;22094;52.130;5.598;2023-04-23T15:16:29;15.50;99.90
23717;DHT22;22094;52.130;5.598;2023-04-23T15:18:57;14.20;99.90
23717;DHT22;22094;52.130;5.598;2023-04-23T15:21:23;13.50;99.90
23717;DHT22;22094;52.130;5.598;2023-04-23T15:23:48;13.50;99.90
23717;DHT22;22094;52.130;5.598;2023-04-23T15:26:14;10.70;99.90
23717;DHT22;22094;52.130;5.598;2023-04-23T15:28:40;13.00;99.90
23717;DHT22;22094;52.130;5.598;2023-04-23T15:31:06;13.90;99.90
23717;DHT22;22094;52.130;5.598;2023-04-23T15:35:57;12.80;99.90
23717;DHT22;22094;52.130;5.598;2023-04-23T15:38:23;12.80;99.90
23717;DHT22;22094;52.130;5.598;2023-04-23T15:40:48;15.80;99.90
23717;DHT22;22094;52.130;5.598;2023-04-23T15:43:15;12.50;99.90
23717;DHT22;22094;52.130;5.598;2023-04-23T15:45:41;12.70;99.90
23717;DHT22;22094;52.130;5.598;2023-04-23T15:48:08;12.70;99.90
23717;DHT22;22094;52.130;5.598;2023-04-23T15:53:00;12.70;99.90
23717;DHT22;22094;52.130;5.598;2023-04-23T15:55:27;12.60;99.90
23717;DHT22;22094;52.130;5.598;2023-04-23T15:57:53;13.80;99.90
23717;DHT22;22094;52.130;5.598;2023-04-23T16:00:19;12.60;99.90
23717;DHT22;22094;52.130;5.598;2023-04-23T16:02:44;10.10;99.90
23717;DHT22;22094;52.130;5.598;2023-04-23T16:05:10;14.20;99.90
23717;DHT22;22094;52.130;5.598;2023-04-23T16:07:38;12.50;99.90
23717;DHT22;22094;52.130;5.598;2023-04-23T16:10:05;14.60;99.90
23717;DHT22;22094;52.130;5.598;2023-04-23T16:14:57;12.70;99.90
23717;DHT22;22094;52.130;5.598;2023-04-23T16:17:22;12.40;99.90
23717;DHT22;22094;52.130;5.598;2023-04-23T16:19:48;12.30;99.90
23717;DHT22;22094;52.130;5.598;2023-04-23T16:22:14;11.10;99.90
23717;DHT22;22094;52.130;5.598;2023-04-23T16:24:40;12.60;99.90
23717;DHT22;22094;52.130;5.598;2023-04-23T16:27:06;12.50;99.90
23717;DHT22;22094;52.130;5.598;2023-04-23T16:29:38;12.40;99.90
23717;DHT22;22094;52.130;5.598;2023-04-23T16:32:04;12.20;99.90
23717;DHT22;22094;52.130;5.598;2023-04-23T16:34:32;12.40;99.90
23717;DHT22;22094;52.130;5.598;2023-04-23T16:36:57;12.40;99.90
23717;DHT22;22094;52.130;5.598;2023-04-23T16:41:49;12.20;99.90
23717;DHT22;22094;52.130;5.598;2023-04-23T16:44:15;12.40;99.90
23717;DHT22;22094;52.130;5.598;2023-04-23T16:46:40;12.20;99.90
23717;DHT22;22094;52.130;5.598;2023-04-23T16:49:06;12.20;99.90
23717;DHT22;22094;52.130;5.598;2023-04-23T16:51:31;12.20;99.90
23717;DHT22;22094;52.130;5.598;2023-04-23T16:53:57;12.90;99.90
23717;DHT22;22094;52.130;5.598;2023-04-23T16:58:49;12.20;99.90
23717;DHT22;22094;52.130;5.598;2023-04-23T17:01:15;12.20;99.90
23717;DHT22;22094;52.130;5.598;2023-04-23T17:03:45;12.10;99.90
23717;DHT22;22094;52.130;5.598;2023-04-23T17:06:30;12.00;99.90
23717;DHT22;22094;52.130;5.598;2023-04-23T17:08:57;12.20;99.90
23717;DHT22;22094;52.130;5.598;2023-04-23T17:11:27;12.10;99.90
23717;DHT22;22094;52.130;5.598;2023-04-23T17:13:53;10.90;99.90
23717;DHT22;22094;52.130;5.598;2023-04-23T17:16:19;14.10;99.90
23717;DHT22;22094;52.130;5.598;2023-04-23T17:18:44;9.60;99.90
23717;DHT22;22094;52.130;5.598;2023-04-23T17:21:10;14.40;99.90
23717;DHT22;22094;52.130;5.598;2023-04-23T17:23:36;10.80;99.90
23717;DHT22;22094;52.130;5.598;2023-04-23T17:26:02;11.80;99.90
23717;DHT22;22094;52.130;5.598;2023-04-23T17:28:27;11.70;99.90
23717;DHT22;22094;52.130;5.598;2023-04-23T17:30:53;11.80;99.90
23717;DHT22;22094;52.130;5.598;2023-04-23T17:33:20;11.70;99.90
23717;DHT22;22094;52.130;5.598;2023-04-23T17:35:48;10.30;99.90
23717;DHT22;22094;52.130;5.598;2023-04-23T17:38:16;11.80;99.90
23717;DHT22;22094;52.130;5.598;2023-04-23T17:40:48;11.60;99.90
23717;DHT22;22094;52.130;5.598;2023-04-23T17:43:14;11.60;99.90